Swinoujscie, Poland
Current Conditions -  °F | °C
As of 2:20 PM on Tuesday 21 Oct 2014 (Local Time) from EDAH Reporting Station
Rain Showers Rain Showers  
Wind Chill: 55°   Ceiling: 1300
Heat Index: 55°   Visibility: 6mi
Dew Point: 52°   Wind: 8mph
Humidity: 88%   Direction: 190°S
Pressure: 29.62"   Gusts: NA
Location:  53.91°N, 14.25°E
Report Text: EDAH 211220Z 19007KT 9999 -SHRA OVC013 13/11 Q1003
Loading
Personal Weather Stations






























Interactive Weather Map
Tropical Storm Tracking
New forecast layout! Learn more

10-Day Weather Forecast

Advertisements
Track Severe Weather on mobile